createdAt,value
2018-01-17T00:01:47.436Z,96.80
2018-01-17T00:04:14.174Z,96.80
2018-01-17T00:06:41.121Z,96.80
2018-01-17T00:09:07.717Z,96.80
2018-01-17T00:11:34.631Z,96.90
2018-01-17T00:14:01.257Z,96.90
2018-01-17T00:16:27.833Z,97.00
2018-01-17T00:18:54.699Z,97.10
2018-01-17T00:21:21.738Z,96.60
2018-01-17T00:23:49.482Z,96.50
2018-01-17T00:26:16.189Z,96.30
2018-01-17T00:28:42.853Z,96.60
2018-01-17T00:31:09.474Z,96.40
2018-01-17T00:33:36.404Z,96.60
2018-01-17T00:36:03.009Z,96.60
2018-01-17T00:38:30.001Z,96.90
2018-01-17T00:40:56.784Z,96.90
2018-01-17T00:43:23.557Z,97.20
2018-01-17T00:45:50.830Z,97.40
2018-01-17T00:48:20.100Z,97.20
2018-01-17T00:50:46.756Z,96.90
2018-01-17T00:53:13.409Z,97.00
2018-01-17T00:55:40.467Z,96.90
2018-01-17T00:58:07.073Z,97.00
2018-01-17T01:00:33.633Z,96.90
2018-01-17T01:03:00.170Z,96.70
2018-01-17T01:05:26.965Z,96.60
2018-01-17T01:07:53.823Z,96.10
2018-01-17T01:10:20.793Z,95.90
2018-01-17T01:12:48.457Z,96.00
2018-01-17T01:17:47.006Z,96.00
2018-01-17T01:20:13.942Z,95.80
2018-01-17T01:22:41.093Z,95.80
2018-01-17T01:25:07.720Z,96.00
2018-01-17T01:27:34.276Z,96.10
2018-01-17T01:30:00.813Z,95.80
2018-01-17T01:32:27.400Z,95.50
2018-01-17T01:34:54.158Z,95.40
2018-01-17T01:37:22.012Z,95.40
2018-01-17T01:39:49.785Z,95.30
2018-01-17T01:42:17.095Z,95.10
2018-01-17T01:44:44.578Z,95.10
2018-01-17T01:47:11.780Z,95.10
2018-01-17T01:49:38.478Z,95.40
2018-01-17T01:52:05.053Z,95.10
2018-01-17T01:54:31.729Z,95.20
2018-01-17T01:56:58.298Z,95.10
2018-01-17T01:59:25.116Z,94.80
2018-01-17T02:01:51.981Z,94.80
2018-01-17T02:04:20.120Z,94.90
2018-01-17T02:06:47.024Z,94.70
2018-01-17T02:09:13.674Z,94.80
2018-01-17T02:11:40.841Z,94.90
2018-01-17T02:14:07.828Z,94.50
2018-01-17T02:16:34.851Z,94.50
2018-01-17T02:19:01.470Z,94.50
2018-01-17T02:21:27.997Z,94.70
2018-01-17T02:23:55.100Z,94.10
2018-01-17T02:26:22.180Z,94.10
2018-01-17T02:28:49.332Z,94.40
2018-01-17T02:31:22.119Z,94.50
2018-01-17T02:33:49.811Z,94.50
2018-01-17T02:36:16.429Z,94.10
2018-01-17T02:38:43.053Z,93.90
2018-01-17T02:41:09.682Z,93.50
2018-01-17T02:43:36.233Z,93.30
2018-01-17T02:46:03.223Z,93.60
2018-01-17T02:48:29.864Z,93.60
2018-01-17T02:50:56.753Z,93.60
2018-01-17T02:53:23.621Z,93.50
2018-01-17T02:55:51.008Z,93.50
2018-01-17T02:58:18.452Z,93.60
2018-01-17T03:00:45.497Z,93.20
2018-01-17T03:03:12.366Z,92.80
2018-01-17T03:05:39.081Z,92.40
2018-01-17T03:08:05.811Z,92.10
2018-01-17T03:10:32.733Z,91.70
2018-01-17T03:12:59.360Z,91.70
2018-01-17T03:15:26.092Z,91.40
2018-01-17T03:17:53.681Z,91.00
2018-01-17T03:20:22.084Z,91.70
2018-01-17T03:22:50.531Z,91.40
2018-01-17T03:25:17.273Z,91.30
2018-01-17T03:27:44.140Z,90.90
2018-01-17T03:30:11.435Z,91.30
2018-01-17T03:32:38.065Z,90.80
2018-01-17T03:35:04.735Z,90.70
2018-01-17T03:37:31.301Z,90.60
2018-01-17T03:39:57.865Z,90.50
2018-01-17T03:42:24.564Z,90.40
2018-01-17T03:44:52.552Z,90.40
2018-01-17T03:47:20.410Z,90.50
2018-01-17T03:49:48.284Z,90.30
2018-01-17T03:52:15.141Z,90.30
2018-01-17T03:54:42.023Z,90.60
2018-01-17T03:57:09.093Z,90.70
2018-01-17T03:59:35.837Z,90.40
2018-01-17T04:02:02.404Z,89.90
2018-01-17T04:04:29.005Z,89.40
2018-01-17T04:06:56.197Z,89.60
2018-01-17T04:09:23.775Z,89.30
2018-01-17T04:11:52.174Z,89.30
2018-01-17T04:14:20.454Z,88.90
2018-01-17T04:16:47.643Z,88.90
2018-01-17T04:19:14.633Z,88.60
2018-01-17T04:21:41.831Z,88.20
2018-01-17T04:24:09.332Z,87.80
2018-01-17T04:26:35.944Z,87.80
2018-01-17T04:29:02.596Z,88.00
2018-01-17T04:31:29.145Z,88.30
2018-01-17T04:33:55.882Z,88.50
2018-01-17T04:36:23.177Z,89.00
2018-01-17T04:38:51.726Z,89.20
2018-01-17T04:41:20.753Z,89.20
2018-01-17T04:43:48.222Z,89.70
2018-01-17T04:46:15.357Z,90.00
2018-01-17T04:48:42.336Z,90.00
2018-01-17T04:51:09.301Z,90.20
2018-01-17T04:53:35.948Z,90.20
2018-01-17T04:56:02.496Z,90.20
2018-01-17T04:58:29.146Z,90.30
2018-01-17T05:00:55.918Z,90.40
2018-01-17T05:03:23.241Z,90.50
2018-01-17T05:05:52.692Z,90.80
2018-01-17T05:08:20.181Z,90.70
2018-01-17T05:10:47.103Z,90.70
2018-01-17T05:13:14.665Z,90.70
2018-01-17T05:15:41.923Z,90.70
2018-01-17T05:18:08.569Z,90.70
2018-01-17T05:20:35.190Z,90.70
2018-01-17T05:23:04.035Z,90.10
2018-01-17T05:25:34.592Z,90.10
2018-01-17T05:28:04.073Z,90.10
2018-01-17T05:30:31.769Z,89.60
2018-01-17T05:32:58.824Z,89.40
2018-01-17T05:35:25.501Z,89.10
2018-01-17T05:37:52.315Z,89.00
2018-01-17T05:40:19.389Z,88.50
2018-01-17T05:42:46.039Z,88.50
2018-01-17T05:45:12.658Z,88.50
2018-01-17T05:47:39.389Z,88.50
2018-01-17T05:50:06.513Z,88.50
2018-01-17T05:52:34.524Z,88.00
2018-01-17T05:55:02.610Z,87.50
2018-01-17T05:57:29.649Z,87.50
2018-01-17T05:59:56.225Z,86.70
2018-01-17T06:02:22.905Z,86.90
2018-01-17T06:04:49.569Z,86.50
2018-01-17T06:07:16.102Z,86.30
2018-01-17T06:09:42.688Z,86.60
2018-01-17T06:12:09.724Z,86.10
2018-01-17T06:14:37.189Z,86.50
2018-01-17T06:17:06.954Z,86.70
2018-01-17T06:19:34.708Z,86.40
2018-01-17T06:22:02.548Z,86.30
2018-01-17T06:24:29.341Z,86.40
2018-01-17T06:26:56.357Z,85.60
2018-01-17T06:29:23.346Z,85.60
2018-01-17T06:31:50.361Z,85.90
2018-01-17T06:34:17.043Z,85.90
2018-01-17T06:36:43.661Z,86.20
2018-01-17T06:39:10.341Z,85.90
2018-01-17T06:41:36.965Z,85.60
2018-01-17T06:44:03.849Z,85.60
2018-01-17T06:46:30.572Z,86.20
2018-01-17T06:48:57.238Z,86.40
2018-01-17T06:51:24.509Z,86.60
2018-01-17T06:53:51.346Z,87.10
2018-01-17T06:56:18.084Z,87.00
2018-01-17T06:58:44.604Z,87.20
2018-01-17T07:01:11.589Z,87.90
2018-01-17T07:03:38.217Z,87.90
2018-01-17T07:06:05.016Z,88.00
2018-01-17T07:08:32.079Z,87.50
2018-01-17T07:10:58.717Z,87.60
2018-01-17T07:13:25.382Z,89.50
2018-01-17T07:15:52.025Z,92.90
2018-01-17T07:18:18.649Z,94.90
2018-01-17T07:20:45.177Z,95.80
2018-01-17T07:23:11.770Z,95.90
2018-01-17T07:25:38.433Z,95.90
2018-01-17T07:28:05.476Z,96.20
2018-01-17T07:30:32.657Z,95.70
2018-01-17T07:32:59.288Z,95.10
2018-01-17T07:35:25.830Z,95.00
2018-01-17T07:37:52.457Z,94.40
2018-01-17T07:40:19.031Z,94.40
2018-01-17T07:42:45.597Z,94.80
2018-01-17T07:45:12.229Z,94.50
2018-01-17T07:47:38.801Z,94.20
2018-01-17T07:50:05.461Z,94.80
2018-01-17T07:52:32.487Z,94.40
2018-01-17T07:54:59.513Z,94.70
2018-01-17T07:57:26.050Z,94.70
2018-01-17T07:59:52.714Z,94.80
2018-01-17T08:02:19.296Z,94.60
2018-01-17T08:04:45.820Z,94.50
2018-01-17T08:07:12.384Z,94.20
2018-01-17T08:09:38.964Z,93.40
2018-01-17T08:12:06.261Z,93.80
2018-01-17T08:14:32.934Z,93.80
2018-01-17T08:16:59.525Z,93.60
2018-01-17T08:19:26.054Z,93.20
2018-01-17T08:21:52.669Z,93.00
2018-01-17T08:24:19.249Z,92.40
2018-01-17T08:26:45.785Z,90.70
2018-01-17T08:29:12.356Z,90.90
2018-01-17T08:31:38.933Z,90.80
2018-01-17T08:34:05.542Z,90.70
2018-01-17T08:36:32.165Z,90.70
2018-01-17T08:38:58.793Z,91.90
2018-01-17T08:41:25.326Z,92.20
2018-01-17T08:43:51.916Z,92.30
2018-01-17T08:46:18.537Z,92.00
2018-01-17T08:48:45.069Z,91.50
2018-01-17T08:51:11.733Z,91.40
2018-01-17T08:53:38.333Z,91.70
2018-01-17T08:56:04.905Z,90.20
2018-01-17T08:58:32.025Z,89.90
2018-01-17T09:00:58.665Z,89.90
2018-01-17T09:03:25.220Z,90.40
2018-01-17T09:05:51.816Z,89.70
2018-01-17T09:08:18.597Z,90.10
2018-01-17T09:10:45.685Z,89.80
2018-01-17T09:13:12.249Z,89.40
2018-01-17T09:15:38.809Z,89.40
2018-01-17T09:18:05.752Z,89.40
2018-01-17T09:20:32.433Z,89.40
2018-01-17T09:22:59.012Z,88.80
2018-01-17T09:25:25.549Z,88.40
2018-01-17T09:27:52.598Z,88.00
2018-01-17T09:30:19.277Z,88.10
2018-01-17T09:32:45.805Z,88.40
2018-01-17T09:35:12.368Z,87.50
2018-01-17T09:37:38.932Z,87.80
2018-01-17T09:40:05.505Z,88.00
2018-01-17T09:42:32.206Z,87.20
2018-01-17T09:44:58.792Z,85.60
2018-01-17T09:47:25.324Z,85.50
2018-01-17T09:49:51.911Z,84.60
2018-01-17T09:52:18.524Z,83.40
2018-01-17T09:54:45.065Z,85.20
2018-01-17T09:57:11.647Z,83.90
2018-01-17T09:59:38.837Z,82.20
2018-01-17T10:02:05.454Z,82.20
2018-01-17T10:04:32.152Z,82.20
2018-01-17T10:06:59.223Z,81.90
2018-01-17T10:09:25.760Z,81.90
2018-01-17T10:11:52.362Z,82.20
2018-01-17T10:14:19.020Z,82.50
2018-01-17T10:16:45.913Z,81.90
2018-01-17T10:19:12.576Z,81.90
2018-01-17T10:21:39.157Z,81.20
2018-01-17T10:24:06.094Z,80.00
2018-01-17T10:26:32.795Z,80.00
2018-01-17T10:28:59.405Z,78.50
2018-01-17T10:31:25.940Z,78.60
2018-01-17T10:33:52.584Z,78.60
2018-01-17T10:36:19.168Z,78.80
2018-01-17T10:38:46.074Z,78.70
2018-01-17T10:41:12.649Z,78.70
2018-01-17T10:43:39.213Z,78.60
2018-01-17T10:46:06.159Z,78.40
2018-01-17T10:48:33.183Z,76.90
2018-01-17T10:50:59.833Z,76.90
2018-01-17T10:53:26.453Z,76.40
2018-01-17T10:55:53.038Z,76.10
2018-01-17T10:58:19.649Z,75.80
2018-01-17T11:00:46.232Z,75.40
2018-01-17T11:03:12.839Z,75.70
2018-01-17T11:05:39.469Z,76.20
2018-01-17T11:08:06.414Z,75.50
2018-01-17T11:10:33.425Z,75.50
2018-01-17T11:13:00.392Z,75.50
2018-01-17T11:15:27.042Z,73.60
2018-01-17T11:17:53.624Z,74.40
2018-01-17T11:20:20.185Z,73.70
2018-01-17T11:22:47.137Z,71.70
2018-01-17T11:25:14.126Z,72.40
2018-01-17T11:27:40.718Z,72.40
2018-01-17T11:30:07.322Z,73.60
2018-01-17T11:32:33.924Z,72.30
2018-01-17T11:35:00.506Z,74.40
2018-01-17T11:37:27.053Z,75.20
2018-01-17T11:39:53.627Z,73.50
2018-01-17T11:42:20.292Z,74.30
2018-01-17T11:44:46.908Z,74.30
2018-01-17T11:47:13.562Z,75.40
2018-01-17T11:49:40.128Z,74.60
2018-01-17T11:52:06.765Z,73.30
2018-01-17T11:54:33.365Z,73.20
2018-01-17T11:57:00.332Z,74.50
2018-01-17T11:59:27.245Z,75.00
2018-01-17T12:01:53.828Z,75.00
2018-01-17T12:04:20.818Z,74.80
2018-01-17T12:06:47.389Z,74.80
2018-01-17T12:09:13.948Z,75.60
2018-01-17T12:11:40.508Z,79.50
2018-01-17T12:14:07.060Z,83.20
2018-01-17T12:16:34.044Z,80.50
2018-01-17T12:19:00.644Z,80.50
2018-01-17T12:21:27.344Z,80.90
2018-01-17T12:23:54.277Z,79.60
2018-01-17T12:26:20.876Z,79.60
2018-01-17T12:28:47.549Z,79.90
2018-01-17T12:31:14.200Z,81.00
2018-01-17T12:33:40.768Z,82.10
2018-01-17T12:36:07.321Z,83.10
2018-01-17T12:38:34.092Z,83.80
2018-01-17T12:41:01.310Z,83.60
2018-01-17T12:43:27.932Z,83.60
2018-01-17T12:45:54.506Z,84.20
2018-01-17T12:48:21.239Z,83.20
2018-01-17T12:50:47.774Z,81.70
2018-01-17T12:53:14.425Z,80.20
2018-01-17T12:55:41.004Z,80.40
2018-01-17T12:58:07.550Z,80.30
2018-01-17T13:00:34.172Z,80.10
2018-01-17T13:03:01.039Z,78.90
2018-01-17T13:05:27.584Z,77.50
2018-01-17T13:07:54.162Z,77.80
2018-01-17T13:10:20.770Z,77.80
2018-01-17T13:12:47.297Z,76.60
2018-01-17T13:15:13.864Z,75.40
2018-01-17T13:17:40.436Z,74.50
2018-01-17T13:20:06.993Z,74.50
2018-01-17T13:22:33.593Z,74.50
2018-01-17T13:25:00.248Z,73.80
2018-01-17T13:27:26.826Z,74.40
2018-01-17T13:58:52.613Z,76.00
2018-01-17T14:01:19.188Z,77.40
2018-01-17T14:03:46.534Z,77.00
2018-01-17T14:06:14.744Z,76.90
2018-01-17T14:08:44.709Z,76.80
2018-01-17T14:11:14.232Z,76.80
2018-01-17T14:13:42.311Z,77.00
2018-01-17T14:16:10.791Z,77.10
2018-01-17T14:18:39.549Z,78.00
2018-01-17T14:21:06.669Z,78.00
2018-01-17T14:23:35.885Z,79.00
2018-01-17T14:26:03.453Z,79.50
2018-01-17T14:28:30.637Z,80.30
2018-01-17T14:30:57.471Z,80.50
2018-01-17T14:33:24.024Z,81.30
2018-01-17T14:35:50.584Z,81.50
2018-01-17T14:38:20.213Z,80.90
2018-01-17T14:40:47.514Z,80.90
2018-01-17T14:43:15.706Z,80.90
2018-01-17T14:45:51.629Z,82.60
2018-01-17T14:48:20.825Z,82.60
2018-01-17T14:50:48.177Z,88.20
2018-01-17T14:53:16.069Z,88.20
2018-01-17T14:55:45.490Z,89.60
2018-01-17T14:58:16.408Z,89.90
2018-01-17T15:00:59.080Z,89.60
2018-01-17T15:03:26.032Z,89.40
2018-01-17T15:05:52.652Z,89.40
2018-01-17T15:08:30.777Z,88.80
2018-01-17T15:10:57.493Z,88.70
2018-01-17T15:13:24.090Z,89.00
2018-01-17T15:15:50.677Z,88.00
2018-01-17T15:18:18.708Z,86.60
2018-01-17T15:20:45.991Z,86.60
2018-01-17T15:23:14.936Z,85.50
2018-01-17T15:25:44.673Z,85.50
2018-01-17T15:28:13.926Z,84.60
2018-01-17T15:30:43.211Z,84.60
2018-01-17T15:33:13.437Z,84.40
2018-01-17T15:35:42.601Z,84.40
2018-01-17T15:38:13.550Z,85.50
2018-01-17T15:40:43.044Z,87.40
2018-01-17T15:43:13.413Z,90.30
2018-01-17T15:45:44.363Z,90.30
2018-01-17T15:48:14.028Z,91.00
2018-01-17T15:50:43.961Z,90.80
2018-01-17T15:53:13.842Z,89.60
2018-01-17T15:55:53.807Z,89.60
2018-01-17T15:58:22.532Z,89.50
2018-01-17T16:00:49.482Z,88.50
2018-01-17T16:03:17.225Z,87.90
2018-01-17T16:05:45.750Z,87.90
2018-01-17T16:08:14.781Z,88.00
2018-01-17T16:10:44.209Z,87.10
2018-01-17T16:13:14.583Z,86.40
2018-01-17T16:15:43.445Z,85.60
2018-01-17T16:18:10.931Z,84.80
2018-01-17T16:20:43.041Z,84.50
2018-01-17T16:23:15.356Z,83.60
2018-01-17T16:25:44.046Z,82.50
2018-01-17T16:28:13.045Z,82.50
2018-01-17T16:30:43.736Z,81.90
2018-01-17T16:33:13.773Z,82.40
2018-01-17T16:35:42.422Z,82.40
2018-01-17T16:38:21.709Z,82.70
2018-01-17T16:40:48.704Z,83.30
2018-01-17T16:43:15.513Z,82.80
2018-01-17T16:45:42.939Z,82.70
2018-01-17T16:48:12.389Z,82.10
2018-01-17T16:50:42.007Z,82.50
2018-01-17T16:53:11.099Z,82.30
2018-01-17T16:55:43.825Z,82.30
2018-01-17T16:58:13.606Z,82.30
2018-01-17T17:00:43.174Z,82.30
2018-01-17T17:03:11.062Z,82.30
2018-01-17T17:05:39.557Z,83.20
2018-01-17T17:08:07.294Z,86.60
2018-01-17T17:10:35.430Z,86.60
2018-01-17T17:13:02.313Z,87.00
2018-01-17T17:15:28.989Z,87.50
2018-01-17T17:17:55.937Z,88.00
2018-01-17T17:20:22.857Z,88.00
2018-01-17T17:22:49.433Z,88.00
2018-01-17T17:25:16.421Z,88.20
2018-01-17T17:27:45.369Z,87.60
2018-01-17T17:30:16.409Z,87.60
2018-01-17T17:32:44.568Z,86.60
2018-01-17T17:35:14.725Z,86.60
2018-01-17T17:37:44.713Z,85.70
2018-01-17T17:40:15.123Z,85.50
2018-01-17T17:42:44.433Z,85.90
2018-01-17T17:45:14.060Z,85.20
2018-01-17T17:47:43.799Z,85.40
2018-01-17T17:50:13.850Z,87.30
2018-01-17T17:52:45.381Z,87.30
2018-01-17T17:55:16.327Z,88.70
2018-01-17T17:57:45.206Z,88.80
2018-01-17T18:00:13.814Z,88.70
2018-01-17T18:02:48.981Z,87.70
2018-01-17T18:05:16.458Z,87.60
2018-01-17T18:07:45.247Z,87.70
2018-01-17T18:10:14.863Z,87.20
2018-01-17T18:12:43.607Z,87.90
2018-01-17T18:15:13.994Z,92.40
2018-01-17T18:17:43.026Z,92.40
2018-01-17T18:20:12.065Z,93.70
2018-01-17T18:22:40.116Z,92.90
2018-01-17T18:25:10.228Z,92.70
2018-01-17T18:27:40.818Z,91.70
2018-01-17T18:30:10.237Z,93.20
2018-01-17T18:32:37.357Z,93.20
2018-01-17T18:35:04.513Z,93.00
2018-01-17T18:37:31.550Z,92.00
2018-01-17T18:39:58.268Z,91.80
2018-01-17T18:42:24.957Z,95.00
2018-01-17T18:44:51.518Z,96.30
2018-01-17T18:47:18.595Z,96.80
2018-01-17T18:49:46.125Z,97.30
2018-01-17T18:52:13.729Z,97.30
2018-01-17T18:54:43.026Z,97.10
2018-01-17T18:57:12.498Z,96.70
2018-01-17T18:59:40.790Z,96.70
2018-01-17T19:02:08.545Z,95.70
2018-01-17T19:04:35.605Z,95.20
2018-01-17T19:07:03.338Z,92.30
2018-01-17T19:09:30.037Z,92.30
2018-01-17T19:11:57.115Z,90.90
2018-01-17T19:14:24.302Z,90.90
2018-01-17T19:16:50.846Z,90.30
2018-01-17T19:19:17.429Z,90.00
2018-01-17T19:21:44.984Z,92.20
2018-01-17T19:24:11.926Z,92.20
2018-01-17T19:26:40.303Z,92.80
2018-01-17T19:29:08.204Z,93.50
2018-01-17T19:31:35.032Z,94.00
2018-01-17T19:34:01.624Z,93.90
2018-01-17T19:36:28.197Z,94.20
2018-01-17T19:38:54.865Z,94.70
2018-01-17T19:41:21.429Z,94.70
2018-01-17T19:43:48.296Z,94.60
2018-01-17T19:46:15.148Z,95.20
2018-01-17T19:48:43.811Z,97.00
2018-01-17T19:51:13.069Z,97.00
2018-01-17T19:53:42.085Z,97.40
2018-01-17T19:56:10.562Z,97.90
2018-01-17T19:58:39.308Z,98.50
2018-01-17T20:01:06.176Z,98.50
2018-01-17T20:03:33.864Z,98.50
2018-01-17T20:06:00.552Z,98.50
2018-01-17T20:08:27.269Z,98.50
2018-01-17T20:10:53.978Z,98.50
2018-01-17T20:13:21.752Z,98.50
2018-01-17T20:15:49.525Z,98.50
2018-01-17T20:18:17.621Z,98.50
2018-01-17T20:20:44.822Z,98.50
2018-01-17T20:23:14.009Z,98.50
2018-01-17T20:25:41.545Z,98.50
2018-01-17T20:28:10.868Z,98.50
2018-01-17T20:30:38.773Z,98.50
2018-01-17T20:33:05.829Z,98.20
2018-01-17T20:35:33.093Z,98.10
2018-01-17T20:38:00.667Z,98.10
2018-01-17T20:40:27.581Z,97.80
2018-01-17T20:42:55.053Z,97.80
2018-01-17T20:45:21.585Z,97.70
2018-01-17T20:47:48.161Z,97.10
2018-01-17T20:50:16.499Z,95.90
2018-01-17T20:52:44.931Z,95.90
2018-01-17T20:55:13.852Z,96.10
2018-01-17T20:57:42.632Z,95.80
2018-01-17T21:00:12.010Z,95.70
2018-01-17T21:02:40.615Z,95.60
2018-01-17T21:05:09.918Z,95.60
2018-01-17T21:07:36.791Z,95.40
2018-01-17T21:10:05.125Z,95.50
2018-01-17T21:12:32.059Z,95.50
2018-01-17T21:14:59.320Z,94.80
2018-01-17T21:17:25.925Z,94.50
2018-01-17T21:19:52.481Z,94.20
2018-01-17T21:22:19.068Z,94.30
2018-01-17T21:24:46.010Z,94.00
2018-01-17T21:27:14.953Z,93.20
2018-01-17T21:29:43.201Z,93.00
2018-01-17T21:32:12.816Z,93.00
2018-01-17T21:34:43.745Z,92.90
2018-01-17T21:37:14.193Z,92.50
2018-01-17T21:39:44.561Z,91.80
2018-01-17T21:42:20.149Z,91.40
2018-01-17T21:44:53.485Z,91.30
2018-01-17T21:47:20.045Z,90.80
2018-01-17T21:49:46.780Z,90.80
2018-01-17T21:52:15.285Z,88.90
2018-01-17T21:54:45.861Z,89.80
2018-01-17T21:57:14.565Z,89.20
2018-01-17T21:59:44.046Z,89.90
2018-01-17T22:02:15.040Z,90.30
2018-01-17T22:04:46.048Z,90.00
2018-01-17T22:07:15.889Z,90.20
2018-01-17T22:09:46.554Z,90.00
2018-01-17T22:12:15.607Z,90.20
2018-01-17T22:14:45.610Z,90.70
2018-01-17T22:17:16.031Z,90.60
2018-01-17T22:19:44.498Z,91.10
2018-01-17T22:22:20.956Z,90.70
2018-01-17T22:24:48.789Z,91.10
2018-01-17T22:27:16.529Z,91.10
2018-01-17T22:29:47.016Z,90.90
2018-01-17T22:32:16.061Z,90.80
2018-01-17T22:34:52.337Z,91.00
2018-01-17T22:37:20.764Z,91.00
2018-01-17T22:39:48.491Z,91.30
2018-01-17T22:42:16.021Z,91.30
2018-01-17T22:44:46.021Z,91.00
2018-01-17T22:47:17.119Z,91.20
2018-01-17T22:49:47.625Z,91.50
2018-01-17T22:52:16.587Z,91.60
2018-01-17T22:54:49.584Z,91.70
2018-01-17T22:57:18.754Z,91.90
2018-01-17T22:59:47.436Z,91.90
2018-01-17T23:02:19.484Z,91.30
2018-01-17T23:04:50.632Z,91.70
2018-01-17T23:07:18.931Z,91.60
2018-01-17T23:09:50.337Z,91.70
2018-01-17T23:12:20.633Z,91.40
2018-01-17T23:14:50.003Z,91.40
2018-01-17T23:17:17.641Z,91.20
2018-01-17T23:19:48.507Z,90.80
2018-01-17T23:22:18.045Z,90.70
2018-01-17T23:24:48.773Z,90.80
2018-01-17T23:27:18.064Z,90.40
2018-01-17T23:29:48.948Z,90.30
2018-01-17T23:32:19.513Z,90.60
2018-01-17T23:34:49.054Z,90.40
2018-01-17T23:37:18.136Z,90.10
2018-01-17T23:39:46.897Z,90.50
2018-01-17T23:42:18.239Z,90.70
2018-01-17T23:44:49.269Z,90.40
2018-01-17T23:47:20.822Z,90.50
2018-01-17T23:49:50.761Z,90.30
2018-01-17T23:52:20.545Z,89.90
2018-01-17T23:54:53.021Z,90.00
2018-01-17T23:57:20.824Z,89.80
2018-01-17T23:59:50.589Z,89.70
